SHT21B EGJB-EGLL
Flight info
| Callsign | SHT21B |
|---|---|
| Flight time | 0h 34m |
| Altitude | 19000 |
| Route | ORIST1F ORIST L982 ROXOG ROXOG1H |
| Aircraft | A319/M-SDE3FGIJ1KRWXY/LB1 |
Departure
| Time | 2026-05-07 17:23 |
|---|---|
| Airport | Guernsey Airport (EGJB) |
Arrival
| Time | 2026-05-07 17:57 |
|---|---|
| Airport | London Heathrow Airport (EGLL) |
| Time | Latitude | Longitude | Altitude | Speed | Heading |
|---|---|---|---|---|---|
| 2026-05-07 16:59 | 49.43255 | -2.59684 | 328 ft | 0 kts | 177° |
| 2026-05-07 17:16 | 49.43273 | -2.59686 | 326 ft | 4 kts | 176° |
| 2026-05-07 17:16 | 49.43300 | -2.59688 | 328 ft | 4 kts | 179° |
| 2026-05-07 17:17 | 49.43327 | -2.59685 | 328 ft | 4 kts | 197° |
| 2026-05-07 17:17 | 49.43347 | -2.59671 | 324 ft | 4 kts | 221° |
| 2026-05-07 17:17 | 49.43360 | -2.59639 | 327 ft | 4 kts | 261° |
| 2026-05-07 17:17 | 49.43362 | -2.59616 | 327 ft | 0 kts | 267° |
| 2026-05-07 17:19 | 49.43362 | -2.59617 | 327 ft | 1 kts | 267° |
| 2026-05-07 17:20 | 49.43361 | -2.59658 | 325 ft | 7 kts | 267° |
| 2026-05-07 17:20 | 49.43351 | -2.59761 | 325 ft | 12 kts | 255° |
| 2026-05-07 17:20 | 49.43342 | -2.59930 | 319 ft | 21 kts | 267° |
| 2026-05-07 17:20 | 49.43334 | -2.60215 | 299 ft | 32 kts | 268° |
| 2026-05-07 17:21 | 49.43325 | -2.60526 | 297 ft | 27 kts | 269° |
| 2026-05-07 17:21 | 49.43350 | -2.60811 | 301 ft | 26 kts | 280° |
| 2026-05-07 17:21 | 49.43361 | -2.61071 | 311 ft | 24 kts | 268° |
| 2026-05-07 17:21 | 49.43362 | -2.61239 | 313 ft | 6 kts | 288° |
| 2026-05-07 17:22 | 49.43383 | -2.61291 | 315 ft | 6 kts | 307° |
| 2026-05-07 17:22 | 49.43409 | -2.61336 | 316 ft | 6 kts | 316° |
| 2026-05-07 17:22 | 49.43459 | -2.61327 | 315 ft | 10 kts | 51° |
| 2026-05-07 17:22 | 49.43471 | -2.61149 | 314 ft | 38 kts | 86° |
| 2026-05-07 17:23 | 49.43497 | -2.60235 | 313 ft | 128 kts | 87° |
| 2026-05-07 17:23 | 49.43543 | -2.58662 | 801 ft | 150 kts | 86° |
| 2026-05-07 17:23 | 49.43587 | -2.57102 | 1676 ft | 147 kts | 91° |
| 2026-05-07 17:23 | 49.43630 | -2.55482 | 2172 ft | 162 kts | 91° |
| 2026-05-07 17:24 | 49.43673 | -2.53603 | 2572 ft | 185 kts | 91° |
| 2026-05-07 17:24 | 49.43729 | -2.51517 | 3039 ft | 209 kts | 89° |
| 2026-05-07 17:24 | 49.44286 | -2.49407 | 3851 ft | 226 kts | 49° |
| 2026-05-07 17:24 | 49.45674 | -2.48213 | 4789 ft | 235 kts | 18° |
| 2026-05-07 17:25 | 49.47261 | -2.47554 | 5795 ft | 238 kts | 14° |
| 2026-05-07 17:25 | 49.48913 | -2.46961 | 6562 ft | 254 kts | 13° |
| 2026-05-07 17:25 | 49.50724 | -2.46328 | 7122 ft | 279 kts | 13° |
| 2026-05-07 17:25 | 49.52664 | -2.45638 | 7930 ft | 291 kts | 13° |
| 2026-05-07 17:26 | 49.54658 | -2.44913 | 8918 ft | 297 kts | 13° |
| 2026-05-07 17:26 | 49.56688 | -2.44158 | 9915 ft | 303 kts | 13° |
| 2026-05-07 17:26 | 49.58755 | -2.43380 | 10855 ft | 308 kts | 13° |
| 2026-05-07 17:26 | 49.60840 | -2.42588 | 11797 ft | 311 kts | 13° |
| 2026-05-07 17:27 | 49.62954 | -2.41781 | 12761 ft | 313 kts | 13° |
| 2026-05-07 17:27 | 49.65079 | -2.40965 | 13725 ft | 316 kts | 13° |
| 2026-05-07 17:27 | 49.67224 | -2.40136 | 14557 ft | 319 kts | 13° |
| 2026-05-07 17:27 | 49.69321 | -2.38918 | 15330 ft | 325 kts | 27° |
| 2026-05-07 17:28 | 49.71233 | -2.36966 | 15850 ft | 340 kts | 40° |
| 2026-05-07 17:28 | 49.72917 | -2.34223 | 16051 ft | 363 kts | 51° |
| 2026-05-07 17:28 | 49.74571 | -2.31175 | 16509 ft | 375 kts | 50° |
| 2026-05-07 17:28 | 49.76267 | -2.28058 | 17169 ft | 381 kts | 50° |
| 2026-05-07 17:29 | 49.77989 | -2.24908 | 17861 ft | 386 kts | 50° |
| 2026-05-07 17:29 | 49.79734 | -2.21722 | 18555 ft | 391 kts | 50° |
| 2026-05-07 17:29 | 49.81500 | -2.18498 | 18908 ft | 394 kts | 50° |
| 2026-05-07 17:29 | 49.83273 | -2.15261 | 19006 ft | 395 kts | 50° |
| 2026-05-07 17:30 | 49.85060 | -2.11998 | 19027 ft | 397 kts | 50° |
| 2026-05-07 17:30 | 49.86847 | -2.08730 | 19028 ft | 398 kts | 50° |
| 2026-05-07 17:30 | 49.88634 | -2.05458 | 19027 ft | 398 kts | 50° |
| 2026-05-07 17:30 | 49.90420 | -2.02185 | 19027 ft | 398 kts | 50° |
| 2026-05-07 17:31 | 49.92208 | -1.98900 | 19026 ft | 398 kts | 50° |
| 2026-05-07 17:31 | 49.93989 | -1.95619 | 19021 ft | 398 kts | 50° |
| 2026-05-07 17:31 | 49.95757 | -1.92353 | 19027 ft | 398 kts | 50° |
| 2026-05-07 17:31 | 49.97549 | -1.89038 | 19024 ft | 398 kts | 50° |
| 2026-05-07 17:32 | 49.99433 | -1.85907 | 19026 ft | 398 kts | 41° |
| 2026-05-07 17:32 | 50.01610 | -1.83355 | 19027 ft | 397 kts | 31° |
| 2026-05-07 17:32 | 50.04043 | -1.81335 | 19028 ft | 397 kts | 25° |
| 2026-05-07 17:32 | 50.05711 | -1.80025 | 19030 ft | 396 kts | 26° |
| 2026-05-07 17:33 | 50.08963 | -1.77445 | 19036 ft | 396 kts | 26° |
| 2026-05-07 17:33 | 50.11415 | -1.75463 | 19035 ft | 396 kts | 28° |
| 2026-05-07 17:33 | 50.13721 | -1.73125 | 19037 ft | 397 kts | 32° |
| 2026-05-07 17:33 | 50.16080 | -1.70893 | 19038 ft | 396 kts | 28° |
| 2026-05-07 17:34 | 50.18509 | -1.68852 | 19043 ft | 396 kts | 26° |
| 2026-05-07 17:34 | 50.20968 | -1.66897 | 19045 ft | 396 kts | 26° |
| 2026-05-07 17:34 | 50.23425 | -1.64961 | 19049 ft | 396 kts | 26° |
| 2026-05-07 17:34 | 50.25875 | -1.62987 | 19050 ft | 396 kts | 26° |
| 2026-05-07 17:35 | 50.28308 | -1.60975 | 19050 ft | 396 kts | 27° |
| 2026-05-07 17:35 | 50.30734 | -1.58926 | 19051 ft | 396 kts | 27° |
| 2026-05-07 17:35 | 50.33149 | -1.56862 | 19051 ft | 396 kts | 28° |
| 2026-05-07 17:35 | 50.35569 | -1.54781 | 19051 ft | 396 kts | 28° |
| 2026-05-07 17:36 | 50.37984 | -1.52700 | 19054 ft | 396 kts | 28° |
| 2026-05-07 17:36 | 50.40401 | -1.50624 | 19053 ft | 396 kts | 28° |
| 2026-05-07 17:36 | 50.42814 | -1.48559 | 19052 ft | 396 kts | 27° |
| 2026-05-07 17:36 | 50.45225 | -1.46497 | 19055 ft | 395 kts | 27° |
| 2026-05-07 17:37 | 50.46829 | -1.45125 | 19057 ft | 395 kts | 27° |
| 2026-05-07 17:37 | 50.49242 | -1.43058 | 19055 ft | 395 kts | 27° |
| 2026-05-07 17:37 | 50.51657 | -1.40983 | 19053 ft | 395 kts | 27° |
| 2026-05-07 17:37 | 50.54058 | -1.38916 | 19044 ft | 394 kts | 27° |
| 2026-05-07 17:38 | 50.56464 | -1.36840 | 19044 ft | 394 kts | 27° |
| 2026-05-07 17:38 | 50.58870 | -1.34761 | 19044 ft | 394 kts | 27° |
| 2026-05-07 17:38 | 50.61276 | -1.32682 | 19044 ft | 394 kts | 28° |
| 2026-05-07 17:38 | 50.63680 | -1.30598 | 18998 ft | 391 kts | 28° |
| 2026-05-07 17:39 | 50.66028 | -1.28562 | 18762 ft | 381 kts | 27° |
| 2026-05-07 17:39 | 50.68333 | -1.26571 | 18528 ft | 377 kts | 27° |
| 2026-05-07 17:39 | 50.70629 | -1.24585 | 18286 ft | 375 kts | 27° |
| 2026-05-07 17:39 | 50.72921 | -1.22601 | 18013 ft | 374 kts | 27° |
| 2026-05-07 17:40 | 50.75194 | -1.20625 | 17742 ft | 372 kts | 28° |
| 2026-05-07 17:40 | 50.77457 | -1.18653 | 17474 ft | 371 kts | 28° |
| 2026-05-07 17:40 | 50.79707 | -1.16690 | 17209 ft | 369 kts | 28° |
| 2026-05-07 17:40 | 50.81951 | -1.14734 | 16941 ft | 367 kts | 28° |
| 2026-05-07 17:41 | 50.84190 | -1.12784 | 16683 ft | 366 kts | 28° |
| 2026-05-07 17:41 | 50.86408 | -1.10848 | 16362 ft | 361 kts | 28° |
| 2026-05-07 17:41 | 50.88598 | -1.08928 | 15869 ft | 358 kts | 28° |
| 2026-05-07 17:41 | 50.90767 | -1.07025 | 15357 ft | 355 kts | 28° |
| 2026-05-07 17:42 | 50.92924 | -1.05133 | 14852 ft | 353 kts | 28° |
| 2026-05-07 17:42 | 50.95063 | -1.03259 | 14347 ft | 350 kts | 28° |
| 2026-05-07 17:42 | 50.97192 | -1.01395 | 13837 ft | 349 kts | 29° |
| 2026-05-07 17:42 | 50.99303 | -0.99511 | 13307 ft | 346 kts | 32° |
| 2026-05-07 17:43 | 51.01190 | -0.97165 | 13043 ft | 345 kts | 44° |
| 2026-05-07 17:43 | 51.02809 | -0.94357 | 13041 ft | 345 kts | 49° |
| 2026-05-07 17:43 | 51.04407 | -0.91511 | 13050 ft | 345 kts | 49° |
| 2026-05-07 17:43 | 51.05991 | -0.88711 | 12956 ft | 345 kts | 49° |
| 2026-05-07 17:44 | 51.07635 | -0.85811 | 11998 ft | 355 kts | 48° |
| 2026-05-07 17:44 | 51.09293 | -0.82872 | 11283 ft | 356 kts | 48° |
| 2026-05-07 17:44 | 51.10913 | -0.79985 | 10696 ft | 354 kts | 48° |
| 2026-05-07 17:44 | 51.12515 | -0.77124 | 10530 ft | 338 kts | 48° |
| 2026-05-07 17:45 | 51.14044 | -0.74386 | 10407 ft | 323 kts | 48° |
| 2026-05-07 17:45 | 51.15505 | -0.71766 | 10277 ft | 310 kts | 48° |
| 2026-05-07 17:45 | 51.16920 | -0.69221 | 10005 ft | 305 kts | 48° |
| 2026-05-07 17:45 | 51.18319 | -0.66706 | 9627 ft | 302 kts | 48° |
| 2026-05-07 17:46 | 51.19814 | -0.64418 | 9353 ft | 295 kts | 32° |
| 2026-05-07 17:46 | 51.21697 | -0.63299 | 9129 ft | 285 kts | 5° |
| 2026-05-07 17:46 | 51.23606 | -0.63661 | 9002 ft | 271 kts | 336° |
| 2026-05-07 17:46 | 51.25145 | -0.65231 | 8862 ft | 259 kts | 318° |
| 2026-05-07 17:47 | 51.26491 | -0.67082 | 8727 ft | 251 kts | 316° |
| 2026-05-07 17:47 | 51.27787 | -0.68908 | 8514 ft | 247 kts | 316° |
| 2026-05-07 17:47 | 51.29065 | -0.70736 | 8240 ft | 246 kts | 316° |
| 2026-05-07 17:47 | 51.30333 | -0.72569 | 8070 ft | 245 kts | 316° |
| 2026-05-07 17:48 | 51.31592 | -0.74388 | 7802 ft | 244 kts | 316° |
| 2026-05-07 17:48 | 51.32838 | -0.76229 | 7503 ft | 243 kts | 316° |
| 2026-05-07 17:48 | 51.34072 | -0.78067 | 7200 ft | 242 kts | 316° |
| 2026-05-07 17:48 | 51.35292 | -0.79910 | 6773 ft | 241 kts | 316° |
| 2026-05-07 17:49 | 51.36529 | -0.81809 | 6286 ft | 240 kts | 316° |
| 2026-05-07 17:49 | 51.37699 | -0.83628 | 6080 ft | 225 kts | 316° |
| 2026-05-07 17:49 | 51.38774 | -0.85311 | 5942 ft | 207 kts | 316° |
| 2026-05-07 17:49 | 51.39774 | -0.86880 | 5679 ft | 198 kts | 316° |
| 2026-05-07 17:50 | 51.40748 | -0.88413 | 5289 ft | 196 kts | 316° |
| 2026-05-07 17:50 | 51.41724 | -0.89944 | 4995 ft | 196 kts | 316° |
| 2026-05-07 17:50 | 51.42703 | -0.91450 | 4726 ft | 194 kts | 321° |
| 2026-05-07 17:50 | 51.43945 | -0.92224 | 4449 ft | 191 kts | 358° |
| 2026-05-07 17:51 | 51.45251 | -0.91921 | 4321 ft | 191 kts | 20° |
| 2026-05-07 17:51 | 51.46386 | -0.90855 | 4191 ft | 190 kts | 43° |
| 2026-05-07 17:51 | 51.47183 | -0.89179 | 4084 ft | 189 kts | 65° |
| 2026-05-07 17:51 | 51.47521 | -0.87153 | 3999 ft | 189 kts | 88° |
| 2026-05-07 17:52 | 51.47538 | -0.85048 | 3994 ft | 189 kts | 90° |
| 2026-05-07 17:52 | 51.47555 | -0.82946 | 4033 ft | 189 kts | 90° |
| 2026-05-07 17:52 | 51.47570 | -0.80917 | 3970 ft | 175 kts | 90° |
| 2026-05-07 17:52 | 51.47584 | -0.79036 | 3823 ft | 169 kts | 90° |
| 2026-05-07 17:53 | 51.47596 | -0.77137 | 3624 ft | 167 kts | 90° |
| 2026-05-07 17:53 | 51.47608 | -0.75270 | 3412 ft | 167 kts | 90° |
| 2026-05-07 17:53 | 51.47620 | -0.73408 | 3189 ft | 167 kts | 90° |
| 2026-05-07 17:53 | 51.47631 | -0.71551 | 2966 ft | 167 kts | 90° |
| 2026-05-07 17:54 | 51.47642 | -0.69695 | 2739 ft | 166 kts | 91° |
| 2026-05-07 17:54 | 51.47653 | -0.67844 | 2518 ft | 166 kts | 90° |
| 2026-05-07 17:54 | 51.47663 | -0.65997 | 2287 ft | 166 kts | 91° |
| 2026-05-07 17:54 | 51.47673 | -0.64154 | 2061 ft | 166 kts | 92° |
| 2026-05-07 17:55 | 51.47683 | -0.62306 | 1839 ft | 165 kts | 91° |
| 2026-05-07 17:55 | 51.47693 | -0.60461 | 1610 ft | 166 kts | 91° |
| 2026-05-07 17:55 | 51.47702 | -0.58619 | 1383 ft | 161 kts | 91° |
| 2026-05-07 17:55 | 51.47711 | -0.56875 | 1167 ft | 151 kts | 91° |
| 2026-05-07 17:56 | 51.47719 | -0.55234 | 959 ft | 143 kts | 92° |
| 2026-05-07 17:56 | 51.47727 | -0.53688 | 769 ft | 136 kts | 92° |
| 2026-05-07 17:56 | 51.47731 | -0.52189 | 608 ft | 133 kts | 92° |
| 2026-05-07 17:56 | 51.47740 | -0.50712 | 383 ft | 131 kts | 93° |
| 2026-05-07 17:57 | 51.47751 | -0.49248 | 217 ft | 131 kts | 92° |
| 2026-05-07 17:57 | 51.47754 | -0.48287 | 103 ft | 130 kts | 94° |
| 2026-05-07 17:57 | 51.47756 | -0.46728 | 90 ft | 78 kts | 88° |
| 2026-05-07 17:57 | 51.47738 | -0.46188 | 89 ft | 30 kts | 130° |
| 2026-05-07 17:58 | 51.47598 | -0.46099 | 90 ft | 10 kts | 227° |
| 2026-05-07 17:58 | 51.47594 | -0.46206 | 86 ft | 11 kts | 269° |
| 2026-05-07 17:58 | 51.47594 | -0.46352 | 86 ft | 15 kts | 270° |
| 2026-05-07 17:58 | 51.47594 | -0.46469 | 86 ft | 9 kts | 270° |
| 2026-05-07 17:59 | 51.47594 | -0.46563 | 86 ft | 7 kts | 270° |
| 2026-05-07 17:59 | 51.47594 | -0.46658 | 86 ft | 10 kts | 270° |
| 2026-05-07 17:59 | 51.47593 | -0.46790 | 86 ft | 13 kts | 268° |
| 2026-05-07 17:59 | 51.47582 | -0.46954 | 89 ft | 16 kts | 269° |
| 2026-05-07 18:00 | 51.47581 | -0.47155 | 89 ft | 20 kts | 270° |
| 2026-05-07 18:00 | 51.47581 | -0.47393 | 86 ft | 23 kts | 270° |
| 2026-05-07 18:00 | 51.47581 | -0.47667 | 86 ft | 26 kts | 269° |
| 2026-05-07 18:00 | 51.47579 | -0.47960 | 90 ft | 27 kts | 269° |
| 2026-05-07 18:01 | 51.47578 | -0.48278 | 86 ft | 30 kts | 270° |
| 2026-05-07 18:01 | 51.47554 | -0.48462 | 89 ft | 11 kts | 211° |
| 2026-05-07 18:01 | 51.47491 | -0.48534 | 87 ft | 13 kts | 253° |
| 2026-05-07 18:01 | 51.47487 | -0.48704 | 87 ft | 17 kts | 270° |
| 2026-05-07 18:02 | 51.47406 | -0.48757 | 86 ft | 5 kts | 180° |
| 2026-05-07 18:02 | 51.47398 | -0.48757 | 86 ft | 0 kts | 180° |